createdAt,value
2017-10-10T00:01:04.310Z,11.14
2017-10-10T00:06:04.088Z,11.24
2017-10-10T00:11:04.256Z,11.14
2017-10-10T00:16:04.000Z,11.14
2017-10-10T00:21:04.171Z,11.14
2017-10-10T00:26:03.996Z,11.14
2017-10-10T00:31:03.717Z,11.14
2017-10-10T00:36:03.452Z,11.14
2017-10-10T00:41:03.596Z,11.14
2017-10-10T00:46:04.366Z,11.14
2017-10-10T00:51:04.171Z,11.14
2017-10-10T00:56:03.878Z,11.14
2017-10-10T01:01:03.633Z,11.14
2017-10-10T01:06:04.349Z,11.14
2017-10-10T01:11:03.638Z,11.14
2017-10-10T01:16:04.423Z,11.14
2017-10-10T01:21:04.629Z,11.14
2017-10-10T01:26:03.505Z,11.14
2017-10-10T01:31:04.353Z,11.14
2017-10-10T01:36:04.113Z,11.02
2017-10-10T01:41:04.358Z,11.14
2017-10-10T01:46:04.136Z,11.02
2017-10-10T01:51:03.937Z,11.05
2017-10-10T01:56:03.667Z,11.05
2017-10-10T02:01:03.498Z,11.17
2017-10-10T02:06:04.206Z,11.14
2017-10-10T02:11:03.483Z,11.05
2017-10-10T02:16:04.174Z,11.05
2017-10-10T02:21:04.031Z,11.05
2017-10-10T02:26:03.773Z,11.05
2017-10-10T02:31:03.593Z,11.05
2017-10-10T02:36:04.377Z,11.05
2017-10-10T02:41:03.598Z,11.05
2017-10-10T02:46:04.309Z,11.05
2017-10-10T02:51:04.148Z,11.17
2017-10-10T02:56:03.903Z,11.05
2017-10-10T03:01:03.693Z,11.05
2017-10-10T03:06:03.406Z,11.05
2017-10-10T03:11:03.635Z,11.05
2017-10-10T03:16:04.365Z,11.05
2017-10-10T03:21:04.305Z,11.05
2017-10-10T03:26:04.115Z,11.05
2017-10-10T03:31:03.881Z,11.05
2017-10-10T03:36:03.660Z,11.05
2017-10-10T03:41:03.824Z,11.05
2017-10-10T03:46:03.619Z,11.02
2017-10-10T03:51:03.427Z,11.02
2017-10-10T03:56:04.224Z,11.00
2017-10-10T04:01:04.043Z,11.12
2017-10-10T04:06:03.793Z,11.09
2017-10-10T04:11:03.964Z,11.09
2017-10-10T04:16:03.808Z,11.19
2017-10-10T04:21:03.619Z,11.19
2017-10-10T04:26:03.592Z,11.17
2017-10-10T04:31:04.367Z,11.17
2017-10-10T04:36:04.043Z,11.14
2017-10-10T04:41:04.190Z,11.14
2017-10-10T04:46:03.899Z,11.14
2017-10-10T04:51:03.674Z,11.26
2017-10-10T04:56:03.570Z,11.26
2017-10-10T05:01:04.308Z,11.26
2017-10-10T05:06:04.118Z,11.14
2017-10-10T05:11:04.178Z,11.14
2017-10-10T05:16:03.991Z,11.17
2017-10-10T05:21:03.834Z,11.19
2017-10-10T05:26:03.711Z,11.19
2017-10-10T05:31:03.491Z,11.19
2017-10-10T05:36:04.171Z,11.24
2017-10-10T05:41:04.310Z,11.24
2017-10-10T05:46:04.106Z,11.31
2017-10-10T05:51:04.059Z,11.33
2017-10-10T05:56:03.783Z,11.31
2017-10-10T06:01:03.578Z,11.28
2017-10-10T06:06:04.377Z,11.26
2017-10-10T06:11:03.586Z,11.26
2017-10-10T06:16:04.340Z,11.24
2017-10-10T06:21:04.253Z,11.24
2017-10-10T06:26:04.142Z,11.24
2017-10-10T06:31:03.932Z,11.24
2017-10-10T06:36:03.756Z,11.24
2017-10-10T06:41:03.832Z,11.24
2017-10-10T06:46:03.617Z,11.24
2017-10-10T06:51:04.382Z,11.24
2017-10-10T06:56:04.192Z,11.24
2017-10-10T07:01:03.866Z,11.24
2017-10-10T07:06:03.635Z,11.24
2017-10-10T07:11:03.894Z,11.24
2017-10-10T07:16:03.659Z,11.26
2017-10-10T07:21:03.562Z,11.26
2017-10-10T07:26:04.340Z,11.26
2017-10-10T07:31:04.091Z,11.26
2017-10-10T07:36:03.854Z,11.26
2017-10-10T07:41:04.030Z,11.24
2017-10-10T07:46:03.858Z,11.26
2017-10-10T07:51:03.673Z,11.24
2017-10-10T07:56:03.443Z,11.24
2017-10-10T08:01:04.209Z,11.21
2017-10-10T08:06:03.967Z,11.21
2017-10-10T08:11:04.148Z,11.21
2017-10-10T08:16:03.931Z,11.21
2017-10-10T08:21:03.757Z,11.21
2017-10-10T08:26:03.553Z,11.21
2017-10-10T08:31:04.261Z,11.21
2017-10-10T08:36:04.089Z,11.24
2017-10-10T08:41:04.232Z,11.24
2017-10-10T08:46:04.072Z,11.24
2017-10-10T08:51:03.843Z,11.24
2017-10-10T08:56:03.573Z,11.24
2017-10-10T09:01:04.332Z,11.24
2017-10-10T09:06:04.152Z,11.24
2017-10-10T09:11:04.344Z,11.24
2017-10-10T09:16:04.090Z,11.24
2017-10-10T09:21:03.967Z,11.24
2017-10-10T09:26:03.807Z,11.24
2017-10-10T09:31:03.578Z,11.24
2017-10-10T09:36:03.408Z,11.24
2017-10-10T09:41:03.615Z,11.24
2017-10-10T09:46:04.417Z,11.24
2017-10-10T09:51:04.165Z,11.24
2017-10-10T09:56:03.913Z,11.24
2017-10-10T10:01:03.875Z,11.24
2017-10-10T10:06:03.714Z,11.24
2017-10-10T10:11:03.897Z,11.33
2017-10-10T10:16:03.716Z,11.24
2017-10-10T10:21:03.534Z,11.24
2017-10-10T10:26:04.414Z,11.26
2017-10-10T10:31:04.150Z,11.24
2017-10-10T10:36:03.983Z,11.24
2017-10-10T10:41:04.149Z,11.24
2017-10-10T10:46:03.957Z,11.24
2017-10-10T10:51:03.802Z,11.24
2017-10-10T10:56:03.583Z,11.24
2017-10-10T11:01:04.314Z,11.24
2017-10-10T11:06:04.116Z,11.24
2017-10-10T11:11:04.350Z,11.24
2017-10-10T11:16:04.059Z,11.35
2017-10-10T11:21:03.866Z,11.24
2017-10-10T11:26:03.653Z,11.24
2017-10-10T11:31:03.466Z,11.35
2017-10-10T11:36:04.244Z,11.24
2017-10-10T11:41:03.447Z,11.24
2017-10-10T11:46:04.200Z,11.24
2017-10-10T11:51:03.992Z,11.35
2017-10-10T11:56:03.781Z,11.26
2017-10-10T12:01:03.511Z,11.33
2017-10-10T12:06:04.213Z,11.31
2017-10-10T12:11:03.404Z,11.31
2017-10-10T12:16:04.220Z,11.28
2017-10-10T12:21:04.283Z,11.28
2017-10-10T12:26:04.053Z,11.40
2017-10-10T12:31:03.875Z,11.26
2017-10-10T12:36:03.666Z,11.26
2017-10-10T12:41:03.783Z,11.26
2017-10-10T12:46:03.992Z,11.28
2017-10-10T12:51:03.873Z,11.28
2017-10-10T12:56:03.455Z,11.28
2017-10-10T13:01:04.256Z,11.28
2017-10-10T13:06:04.326Z,11.28
2017-10-10T13:11:04.328Z,11.26
2017-10-10T13:16:04.054Z,11.38
2017-10-10T13:21:03.818Z,11.26
2017-10-10T13:26:03.572Z,11.38
2017-10-10T13:31:04.385Z,11.24
2017-10-10T13:36:04.189Z,11.35
2017-10-10T13:41:04.337Z,11.35
2017-10-10T13:46:04.104Z,11.35
2017-10-10T13:51:04.713Z,11.35
2017-10-10T13:56:04.124Z,11.24
2017-10-10T14:01:03.692Z,11.38
2017-10-10T14:06:03.505Z,11.26
2017-10-10T14:11:03.697Z,11.26
2017-10-10T14:16:03.689Z,11.26
2017-10-10T14:21:03.460Z,11.26
2017-10-10T14:26:04.295Z,11.26
2017-10-10T14:31:04.089Z,11.26
2017-10-10T14:36:03.861Z,11.26
2017-10-10T14:41:03.481Z,11.38
2017-10-10T14:46:04.285Z,11.26
2017-10-10T14:51:04.049Z,11.38
2017-10-10T14:56:03.870Z,11.35
2017-10-10T15:01:03.730Z,11.26
2017-10-10T15:06:03.487Z,11.38
2017-10-10T15:11:03.688Z,11.26
2017-10-10T15:16:03.400Z,11.38
2017-10-10T15:21:04.242Z,11.38
2017-10-10T15:26:04.021Z,11.38
2017-10-10T15:31:03.791Z,11.38
2017-10-10T15:36:03.840Z,11.26
2017-10-10T15:41:03.499Z,11.38
2017-10-10T15:46:04.206Z,11.26
2017-10-10T15:51:04.025Z,11.26
2017-10-10T15:56:03.807Z,11.26
2017-10-10T16:01:03.594Z,11.38
2017-10-10T16:06:04.343Z,11.26
2017-10-10T16:11:03.576Z,11.26
2017-10-10T16:16:04.367Z,11.40
2017-10-10T16:21:04.204Z,11.38
2017-10-10T16:26:04.012Z,11.26
2017-10-10T16:31:03.824Z,11.38
2017-10-10T16:36:03.511Z,11.38
2017-10-10T16:41:03.801Z,11.38
2017-10-10T16:46:03.620Z,11.38
2017-10-10T16:51:03.587Z,11.38
2017-10-10T16:56:04.439Z,11.38
2017-10-10T17:01:04.388Z,11.38
2017-10-10T17:06:04.330Z,11.38
2017-10-10T17:11:03.730Z,11.38
2017-10-10T17:16:04.310Z,11.38
2017-10-10T17:21:05.016Z,11.38
2017-10-10T17:26:04.678Z,11.38
2017-10-10T17:31:03.406Z,11.26
2017-10-10T17:36:04.256Z,11.28
2017-10-10T17:41:04.424Z,11.28
2017-10-10T17:46:04.612Z,11.28
2017-10-10T17:51:04.156Z,11.31
2017-10-10T17:56:04.076Z,11.31
2017-10-10T18:01:03.806Z,11.31
2017-10-10T18:06:03.922Z,11.31
2017-10-10T18:11:04.097Z,11.28
2017-10-10T18:16:04.601Z,11.28
2017-10-10T18:21:05.695Z,11.40
2017-10-10T18:26:05.398Z,11.28
2017-10-10T18:31:05.462Z,11.28
2017-10-10T18:36:04.573Z,11.28
2017-10-10T18:41:04.973Z,11.40
2017-10-10T18:46:06.404Z,11.28
2017-10-10T18:51:05.576Z,11.28
2017-10-10T18:56:05.189Z,11.28
2017-10-10T19:01:05.071Z,11.33
2017-10-10T19:06:05.822Z,11.31
2017-10-10T19:11:04.972Z,11.31
2017-10-10T19:16:05.289Z,11.31
2017-10-10T19:21:04.872Z,11.31
2017-10-10T19:26:05.615Z,11.33
2017-10-10T19:31:04.836Z,11.31
2017-10-10T19:36:05.240Z,11.31
2017-10-10T19:41:05.387Z,11.28
2017-10-10T19:46:04.689Z,11.28
2017-10-10T19:51:05.640Z,11.28
2017-10-10T19:56:03.821Z,11.38
2017-10-10T20:01:03.657Z,11.38
2017-10-10T20:06:03.478Z,11.38
2017-10-10T20:11:03.732Z,11.26
2017-10-10T20:16:03.549Z,11.42
2017-10-10T20:21:04.462Z,11.50
2017-10-10T20:26:04.286Z,11.50
2017-10-10T20:31:04.061Z,11.38
2017-10-10T20:36:03.882Z,11.35
2017-10-10T20:41:04.012Z,11.35
2017-10-10T20:46:03.873Z,11.35
2017-10-10T20:51:03.642Z,11.33
2017-10-10T20:56:04.386Z,11.33
2017-10-10T21:01:04.177Z,11.31
2017-10-10T21:06:03.965Z,11.42
2017-10-10T21:11:04.113Z,11.40
2017-10-10T21:16:03.878Z,11.40
2017-10-10T21:21:03.747Z,11.31
2017-10-10T21:26:03.501Z,11.31
2017-10-10T21:31:03.464Z,11.31
2017-10-10T21:36:04.235Z,11.31
2017-10-10T21:41:03.459Z,11.33
2017-10-10T21:46:04.198Z,11.33
2017-10-10T21:51:03.993Z,11.33
2017-10-10T21:56:03.723Z,11.33
2017-10-10T22:01:03.523Z,11.35
2017-10-10T22:06:04.327Z,11.35
2017-10-10T22:11:03.566Z,11.35
2017-10-10T22:16:04.339Z,11.35
2017-10-10T22:21:04.255Z,11.35
2017-10-10T22:26:03.996Z,11.35
2017-10-10T22:31:03.791Z,11.35
2017-10-10T22:36:03.527Z,11.38
2017-10-10T22:41:03.776Z,11.26
2017-10-10T22:46:03.565Z,11.26
2017-10-10T22:51:04.336Z,11.26
2017-10-10T22:56:04.104Z,11.26
2017-10-10T23:01:03.797Z,11.26
2017-10-10T23:06:03.560Z,11.26
2017-10-10T23:11:03.778Z,11.26
2017-10-10T23:16:03.568Z,11.28
2017-10-10T23:21:03.415Z,11.26
2017-10-10T23:26:04.199Z,11.28
2017-10-10T23:31:03.965Z,11.28
2017-10-10T23:36:03.733Z,11.28
2017-10-10T23:41:03.912Z,11.26
2017-10-10T23:46:03.721Z,11.28
2017-10-10T23:51:03.509Z,11.28
2017-10-10T23:56:04.265Z,11.28
